sensor_id;sensor_type;location;lat;lon;timestamp;temperature;humidity
24412;DHT22;12544;46.760;15.942;2022-10-31T00:00:20;10.60;99.90
24412;DHT22;12544;46.760;15.942;2022-10-31T00:02:48;10.60;99.90
24412;DHT22;12544;46.760;15.942;2022-10-31T00:05:14;10.60;99.90
24412;DHT22;12544;46.760;15.942;2022-10-31T00:07:39;10.60;99.90
24412;DHT22;12544;46.760;15.942;2022-10-31T00:10:06;10.70;99.90
24412;DHT22;12544;46.760;15.942;2022-10-31T00:12:32;10.70;99.90
24412;DHT22;12544;46.760;15.942;2022-10-31T00:14:57;10.70;99.90
24412;DHT22;12544;46.760;15.942;2022-10-31T00:17:23;10.80;99.90
24412;DHT22;12544;46.760;15.942;2022-10-31T00:19:48;10.80;99.90
24412;DHT22;12544;46.760;15.942;2022-10-31T00:22:14;10.80;99.90
24412;DHT22;12544;46.760;15.942;2022-10-31T00:24:40;10.80;99.90
24412;DHT22;12544;46.760;15.942;2022-10-31T00:27:05;10.70;99.90
24412;DHT22;12544;46.760;15.942;2022-10-31T00:29:31;10.70;99.90
24412;DHT22;12544;46.760;15.942;2022-10-31T00:31:57;10.70;99.90
24412;DHT22;12544;46.760;15.942;2022-10-31T00:34:22;10.70;99.90
24412;DHT22;12544;46.760;15.942;2022-10-31T00:36:48;10.70;99.90
24412;DHT22;12544;46.760;15.942;2022-10-31T00:39:13;10.70;99.90
24412;DHT22;12544;46.760;15.942;2022-10-31T00:41:39;10.70;99.90
24412;DHT22;12544;46.760;15.942;2022-10-31T00:44:05;10.70;99.90
24412;DHT22;12544;46.760;15.942;2022-10-31T00:46:40;10.70;99.90
24412;DHT22;12544;46.760;15.942;2022-10-31T00:49:06;10.70;99.90
24412;DHT22;12544;46.760;15.942;2022-10-31T00:51:31;10.70;99.90
24412;DHT22;12544;46.760;15.942;2022-10-31T00:53:57;10.60;99.90
24412;DHT22;12544;46.760;15.942;2022-10-31T00:56:22;10.70;99.90
24412;DHT22;12544;46.760;15.942;2022-10-31T00:58:56;10.60;99.90
24412;DHT22;12544;46.760;15.942;2022-10-31T01:01:22;10.70;99.90
24412;DHT22;12544;46.760;15.942;2022-10-31T01:03:47;10.60;99.90
24412;DHT22;12544;46.760;15.942;2022-10-31T01:06:13;10.60;99.90
24412;DHT22;12544;46.760;15.942;2022-10-31T01:08:40;10.60;99.90
24412;DHT22;12544;46.760;15.942;2022-10-31T01:11:15;10.60;99.90
24412;DHT22;12544;46.760;15.942;2022-10-31T01:13:42;10.50;99.90
24412;DHT22;12544;46.760;15.942;2022-10-31T01:16:11;10.60;99.90
24412;DHT22;12544;46.760;15.942;2022-10-31T01:18:51;10.60;99.90
24412;DHT22;12544;46.760;15.942;2022-10-31T01:21:28;10.50;99.90
24412;DHT22;12544;46.760;15.942;2022-10-31T01:23:54;10.50;99.90
24412;DHT22;12544;46.760;15.942;2022-10-31T01:26:26;10.50;99.90
24412;DHT22;12544;46.760;15.942;2022-10-31T01:28:57;10.50;99.90
24412;DHT22;12544;46.760;15.942;2022-10-31T01:31:26;10.60;99.90
24412;DHT22;12544;46.760;15.942;2022-10-31T01:33:53;10.50;99.90
24412;DHT22;12544;46.760;15.942;2022-10-31T01:36:22;10.50;99.90
24412;DHT22;12544;46.760;15.942;2022-10-31T01:38:50;10.50;99.90
24412;DHT22;12544;46.760;15.942;2022-10-31T01:41:19;10.40;99.90
24412;DHT22;12544;46.760;15.942;2022-10-31T01:43:54;10.40;99.90
24412;DHT22;12544;46.760;15.942;2022-10-31T01:48:53;10.40;99.90
24412;DHT22;12544;46.760;15.942;2022-10-31T01:51:21;10.40;99.90
24412;DHT22;12544;46.760;15.942;2022-10-31T01:53:49;10.40;99.90
24412;DHT22;12544;46.760;15.942;2022-10-31T01:56:16;10.50;99.90
24412;DHT22;12544;46.760;15.942;2022-10-31T01:58:45;10.50;99.90
24412;DHT22;12544;46.760;15.942;2022-10-31T02:01:13;10.40;99.90
24412;DHT22;12544;46.760;15.942;2022-10-31T02:03:39;10.50;99.90
24412;DHT22;12544;46.760;15.942;2022-10-31T02:06:10;10.50;99.90
24412;DHT22;12544;46.760;15.942;2022-10-31T02:08:39;10.50;99.90
24412;DHT22;12544;46.760;15.942;2022-10-31T02:11:06;10.50;99.90
24412;DHT22;12544;46.760;15.942;2022-10-31T02:13:34;10.60;99.90
24412;DHT22;12544;46.760;15.942;2022-10-31T02:16:09;10.60;99.90
24412;DHT22;12544;46.760;15.942;2022-10-31T02:18:34;10.60;99.90
24412;DHT22;12544;46.760;15.942;2022-10-31T02:35:39;10.60;99.90
24412;DHT22;12544;46.760;15.942;2022-10-31T02:38:10;10.60;99.90
24412;DHT22;12544;46.760;15.942;2022-10-31T02:41:03;10.50;99.90
24412;DHT22;12544;46.760;15.942;2022-10-31T02:43:40;10.50;99.90
24412;DHT22;12544;46.760;15.942;2022-10-31T02:46:35;10.50;99.90
24412;DHT22;12544;46.760;15.942;2022-10-31T02:49:10;10.50;99.90
24412;DHT22;12544;46.760;15.942;2022-10-31T02:51:37;10.50;99.90
24412;DHT22;12544;46.760;15.942;2022-10-31T02:54:04;10.50;99.90
24412;DHT22;12544;46.760;15.942;2022-10-31T02:56:29;10.50;99.90
24412;DHT22;12544;46.760;15.942;2022-10-31T02:58:59;10.50;99.90
24412;DHT22;12544;46.760;15.942;2022-10-31T03:01:51;10.50;99.90
24412;DHT22;12544;46.760;15.942;2022-10-31T03:07:11;10.60;99.90
24412;DHT22;12544;46.760;15.942;2022-10-31T03:15:19;10.60;99.90
24412;DHT22;12544;46.760;15.942;2022-10-31T03:18:29;10.60;99.90
24412;DHT22;12544;46.760;15.942;2022-10-31T03:20:56;10.60;99.90
24412;DHT22;12544;46.760;15.942;2022-10-31T03:23:24;10.60;99.90
24412;DHT22;12544;46.760;15.942;2022-10-31T03:25:52;10.60;99.90
24412;DHT22;12544;46.760;15.942;2022-10-31T03:28:26;10.60;99.90
24412;DHT22;12544;46.760;15.942;2022-10-31T03:30:54;10.60;99.90
24412;DHT22;12544;46.760;15.942;2022-10-31T03:33:26;10.60;99.90
24412;DHT22;12544;46.760;15.942;2022-10-31T03:35:55;10.60;99.90
24412;DHT22;12544;46.760;15.942;2022-10-31T03:38:23;10.60;99.90
24412;DHT22;12544;46.760;15.942;2022-10-31T03:40:51;10.60;99.90
24412;DHT22;12544;46.760;15.942;2022-10-31T03:43:23;10.60;99.90
24412;DHT22;12544;46.760;15.942;2022-10-31T03:45:50;10.60;99.90
24412;DHT22;12544;46.760;15.942;2022-10-31T03:48:18;10.60;99.90
24412;DHT22;12544;46.760;15.942;2022-10-31T03:51:07;10.60;99.90
24412;DHT22;12544;46.760;15.942;2022-10-31T03:53:40;10.60;99.90
24412;DHT22;12544;46.760;15.942;2022-10-31T03:56:29;10.60;99.90
24412;DHT22;12544;46.760;15.942;2022-10-31T03:59:08;10.60;99.90
24412;DHT22;12544;46.760;15.942;2022-10-31T04:01:41;10.50;99.90
24412;DHT22;12544;46.760;15.942;2022-10-31T04:04:09;10.50;99.90
24412;DHT22;12544;46.760;15.942;2022-10-31T04:06:36;10.40;99.90
24412;DHT22;12544;46.760;15.942;2022-10-31T04:09:05;10.40;99.90
24412;DHT22;12544;46.760;15.942;2022-10-31T04:11:35;10.30;99.90
24412;DHT22;12544;46.760;15.942;2022-10-31T04:14:02;10.30;99.90
24412;DHT22;12544;46.760;15.942;2022-10-31T04:16:29;10.30;99.90
24412;DHT22;12544;46.760;15.942;2022-10-31T04:18:55;10.20;99.90
24412;DHT22;12544;46.760;15.942;2022-10-31T04:21:27;10.20;99.90
24412;DHT22;12544;46.760;15.942;2022-10-31T04:23:54;10.10;99.90
24412;DHT22;12544;46.760;15.942;2022-10-31T04:26:19;10.10;99.90
24412;DHT22;12544;46.760;15.942;2022-10-31T04:28:45;10.00;99.90
24412;DHT22;12544;46.760;15.942;2022-10-31T04:31:11;10.00;99.90
24412;DHT22;12544;46.760;15.942;2022-10-31T04:33:37;10.00;99.90
24412;DHT22;12544;46.760;15.942;2022-10-31T04:36:04;10.00;99.90
24412;DHT22;12544;46.760;15.942;2022-10-31T04:38:32;10.00;99.90
24412;DHT22;12544;46.760;15.942;2022-10-31T04:40:58;10.00;99.90
24412;DHT22;12544;46.760;15.942;2022-10-31T04:43:24;10.00;99.90
24412;DHT22;12544;46.760;15.942;2022-10-31T04:45:49;10.00;99.90
24412;DHT22;12544;46.760;15.942;2022-10-31T04:48:17;10.00;99.90
24412;DHT22;12544;46.760;15.942;2022-10-31T04:50:43;10.00;99.90
24412;DHT22;12544;46.760;15.942;2022-10-31T04:53:08;10.00;99.90
24412;DHT22;12544;46.760;15.942;2022-10-31T04:55:35;10.00;99.90
24412;DHT22;12544;46.760;15.942;2022-10-31T04:58:01;10.00;99.90
24412;DHT22;12544;46.760;15.942;2022-10-31T05:00:27;9.90;99.90
24412;DHT22;12544;46.760;15.942;2022-10-31T05:02:55;9.90;99.90
24412;DHT22;12544;46.760;15.942;2022-10-31T05:05:24;9.90;99.90
24412;DHT22;12544;46.760;15.942;2022-10-31T05:07:50;9.80;99.90
24412;DHT22;12544;46.760;15.942;2022-10-31T05:10:19;9.80;99.90
24412;DHT22;12544;46.760;15.942;2022-10-31T05:12:46;9.70;99.90
24412;DHT22;12544;46.760;15.942;2022-10-31T05:15:13;9.60;99.90
24412;DHT22;12544;46.760;15.942;2022-10-31T05:17:39;9.60;99.90
24412;DHT22;12544;46.760;15.942;2022-10-31T05:20:04;9.60;99.90
24412;DHT22;12544;46.760;15.942;2022-10-31T05:22:31;9.50;99.90
24412;DHT22;12544;46.760;15.942;2022-10-31T05:24:57;9.50;99.90
24412;DHT22;12544;46.760;15.942;2022-10-31T05:27:22;9.40;99.90
24412;DHT22;12544;46.760;15.942;2022-10-31T05:29:48;9.40;99.90
24412;DHT22;12544;46.760;15.942;2022-10-31T05:32:14;9.30;99.90
24412;DHT22;12544;46.760;15.942;2022-10-31T05:34:39;9.30;99.90
24412;DHT22;12544;46.760;15.942;2022-10-31T05:37:18;9.30;99.90
24412;DHT22;12544;46.760;15.942;2022-10-31T05:39:44;9.40;99.90
24412;DHT22;12544;46.760;15.942;2022-10-31T05:42:09;9.40;99.90
24412;DHT22;12544;46.760;15.942;2022-10-31T05:44:35;9.40;99.90
24412;DHT22;12544;46.760;15.942;2022-10-31T05:47:00;9.40;99.90
24412;DHT22;12544;46.760;15.942;2022-10-31T05:49:26;9.40;99.90
24412;DHT22;12544;46.760;15.942;2022-10-31T05:51:51;9.40;99.90
24412;DHT22;12544;46.760;15.942;2022-10-31T05:54:17;9.40;99.90
24412;DHT22;12544;46.760;15.942;2022-10-31T05:56:43;9.30;99.90
24412;DHT22;12544;46.760;15.942;2022-10-31T05:59:08;9.30;99.90
24412;DHT22;12544;46.760;15.942;2022-10-31T06:01:34;9.20;99.90
24412;DHT22;12544;46.760;15.942;2022-10-31T06:03:59;9.20;99.90
24412;DHT22;12544;46.760;15.942;2022-10-31T06:06:25;9.10;99.90
24412;DHT22;12544;46.760;15.942;2022-10-31T06:08:54;9.10;99.90
24412;DHT22;12544;46.760;15.942;2022-10-31T06:11:19;9.00;99.90
24412;DHT22;12544;46.760;15.942;2022-10-31T06:13:45;9.00;99.90
24412;DHT22;12544;46.760;15.942;2022-10-31T06:16:10;9.00;99.90
24412;DHT22;12544;46.760;15.942;2022-10-31T06:18:36;8.90;99.90
24412;DHT22;12544;46.760;15.942;2022-10-31T06:21:02;9.00;99.90
24412;DHT22;12544;46.760;15.942;2022-10-31T06:23:27;9.00;99.90
24412;DHT22;12544;46.760;15.942;2022-10-31T06:25:53;9.10;99.90
24412;DHT22;12544;46.760;15.942;2022-10-31T06:28:18;9.20;99.90
24412;DHT22;12544;46.760;15.942;2022-10-31T06:30:45;9.30;99.90
24412;DHT22;12544;46.760;15.942;2022-10-31T06:33:10;9.30;99.90
24412;DHT22;12544;46.760;15.942;2022-10-31T06:35:36;9.30;99.90
24412;DHT22;12544;46.760;15.942;2022-10-31T06:38:02;9.30;99.90
24412;DHT22;12544;46.760;15.942;2022-10-31T06:40:27;9.30;99.90
24412;DHT22;12544;46.760;15.942;2022-10-31T06:42:59;9.40;99.90
24412;DHT22;12544;46.760;15.942;2022-10-31T06:45:26;9.40;99.90
24412;DHT22;12544;46.760;15.942;2022-10-31T06:47:53;9.40;99.90
24412;DHT22;12544;46.760;15.942;2022-10-31T06:50:19;9.50;99.90
24412;DHT22;12544;46.760;15.942;2022-10-31T06:52:56;9.50;99.90
24412;DHT22;12544;46.760;15.942;2022-10-31T06:55:22;9.60;99.90
24412;DHT22;12544;46.760;15.942;2022-10-31T06:57:53;9.60;99.90
24412;DHT22;12544;46.760;15.942;2022-10-31T07:00:19;9.70;99.90
24412;DHT22;12544;46.760;15.942;2022-10-31T07:03:01;9.70;99.90
24412;DHT22;12544;46.760;15.942;2022-10-31T07:05:28;9.70;99.90
24412;DHT22;12544;46.760;15.942;2022-10-31T07:07:55;9.70;99.90
24412;DHT22;12544;46.760;15.942;2022-10-31T07:10:22;9.70;99.90
24412;DHT22;12544;46.760;15.942;2022-10-31T07:12:48;9.80;99.90
24412;DHT22;12544;46.760;15.942;2022-10-31T07:15:14;9.80;99.90
24412;DHT22;12544;46.760;15.942;2022-10-31T07:17:39;9.90;99.90
24412;DHT22;12544;46.760;15.942;2022-10-31T07:20:09;10.00;99.90
24412;DHT22;12544;46.760;15.942;2022-10-31T07:22:36;10.00;99.90
24412;DHT22;12544;46.760;15.942;2022-10-31T07:25:02;10.00;99.90
24412;DHT22;12544;46.760;15.942;2022-10-31T07:27:28;10.00;99.90
24412;DHT22;12544;46.760;15.942;2022-10-31T07:29:53;9.90;99.90
24412;DHT22;12544;46.760;15.942;2022-10-31T07:32:19;10.00;99.90
24412;DHT22;12544;46.760;15.942;2022-10-31T07:34:44;10.10;99.90
24412;DHT22;12544;46.760;15.942;2022-10-31T07:37:10;10.10;99.90
24412;DHT22;12544;46.760;15.942;2022-10-31T07:39:36;10.10;99.90
24412;DHT22;12544;46.760;15.942;2022-10-31T07:42:01;10.10;99.90
24412;DHT22;12544;46.760;15.942;2022-10-31T07:44:27;10.10;99.90
24412;DHT22;12544;46.760;15.942;2022-10-31T07:46:52;10.10;99.90
24412;DHT22;12544;46.760;15.942;2022-10-31T07:49:18;10.10;99.90
24412;DHT22;12544;46.760;15.942;2022-10-31T07:51:43;10.10;99.90
24412;DHT22;12544;46.760;15.942;2022-10-31T07:54:09;10.10;99.90
24412;DHT22;12544;46.760;15.942;2022-10-31T07:56:35;10.20;99.90
24412;DHT22;12544;46.760;15.942;2022-10-31T07:59:00;10.20;99.90
24412;DHT22;12544;46.760;15.942;2022-10-31T08:01:26;10.20;99.90
24412;DHT22;12544;46.760;15.942;2022-10-31T08:03:51;10.20;99.90
24412;DHT22;12544;46.760;15.942;2022-10-31T08:06:17;10.20;99.90
24412;DHT22;12544;46.760;15.942;2022-10-31T08:08:42;10.20;99.90
24412;DHT22;12544;46.760;15.942;2022-10-31T08:11:08;10.20;99.90
24412;DHT22;12544;46.760;15.942;2022-10-31T08:13:34;10.20;99.90
24412;DHT22;12544;46.760;15.942;2022-10-31T08:16:00;10.30;99.90
24412;DHT22;12544;46.760;15.942;2022-10-31T08:18:30;10.30;99.90
24412;DHT22;12544;46.760;15.942;2022-10-31T08:20:55;10.30;99.90
24412;DHT22;12544;46.760;15.942;2022-10-31T08:23:21;10.40;99.90
24412;DHT22;12544;46.760;15.942;2022-10-31T08:25:47;10.40;99.90
24412;DHT22;12544;46.760;15.942;2022-10-31T08:28:21;10.40;99.90
24412;DHT22;12544;46.760;15.942;2022-10-31T08:30:47;10.30;99.90
24412;DHT22;12544;46.760;15.942;2022-10-31T08:33:15;10.20;99.90
24412;DHT22;12544;46.760;15.942;2022-10-31T08:35:41;10.30;99.90
24412;DHT22;12544;46.760;15.942;2022-10-31T08:38:09;10.30;99.90
24412;DHT22;12544;46.760;15.942;2022-10-31T08:40:35;10.40;99.90
24412;DHT22;12544;46.760;15.942;2022-10-31T08:43:20;10.40;99.90
24412;DHT22;12544;46.760;15.942;2022-10-31T08:45:48;10.50;99.90
24412;DHT22;12544;46.760;15.942;2022-10-31T08:48:16;10.50;99.90
24412;DHT22;12544;46.760;15.942;2022-10-31T08:50:43;10.50;99.90
24412;DHT22;12544;46.760;15.942;2022-10-31T08:53:22;10.60;99.90
24412;DHT22;12544;46.760;15.942;2022-10-31T08:55:48;10.60;99.90
24412;DHT22;12544;46.760;15.942;2022-10-31T08:58:17;10.70;99.90
24412;DHT22;12544;46.760;15.942;2022-10-31T09:00:44;10.70;99.90
24412;DHT22;12544;46.760;15.942;2022-10-31T09:03:15;10.80;99.90
24412;DHT22;12544;46.760;15.942;2022-10-31T09:05:41;10.80;99.90
24412;DHT22;12544;46.760;15.942;2022-10-31T09:08:07;10.90;99.90
24412;DHT22;12544;46.760;15.942;2022-10-31T09:10:35;10.90;99.90
24412;DHT22;12544;46.760;15.942;2022-10-31T09:13:09;10.80;99.90
24412;DHT22;12544;46.760;15.942;2022-10-31T09:15:38;10.80;99.90
24412;DHT22;12544;46.760;15.942;2022-10-31T09:18:08;10.90;99.90
24412;DHT22;12544;46.760;15.942;2022-10-31T09:20:35;10.80;99.90
24412;DHT22;12544;46.760;15.942;2022-10-31T09:23:08;10.90;99.90
24412;DHT22;12544;46.760;15.942;2022-10-31T09:25:34;10.80;99.90
24412;DHT22;12544;46.760;15.942;2022-10-31T09:28:02;10.90;99.90
24412;DHT22;12544;46.760;15.942;2022-10-31T09:30:31;11.00;99.90
24412;DHT22;12544;46.760;15.942;2022-10-31T09:33:02;11.10;99.90
24412;DHT22;12544;46.760;15.942;2022-10-31T09:35:28;11.10;99.90
24412;DHT22;12544;46.760;15.942;2022-10-31T09:37:59;11.20;99.90
24412;DHT22;12544;46.760;15.942;2022-10-31T09:46:47;11.30;99.90
24412;DHT22;12544;46.760;15.942;2022-10-31T09:49:36;11.30;99.90
24412;DHT22;12544;46.760;15.942;2022-10-31T09:52:04;11.40;99.90
24412;DHT22;12544;46.760;15.942;2022-10-31T09:54:54;11.40;99.90
24412;DHT22;12544;46.760;15.942;2022-10-31T09:57:34;11.40;99.90
24412;DHT22;12544;46.760;15.942;2022-10-31T10:00:03;11.40;99.90
24412;DHT22;12544;46.760;15.942;2022-10-31T10:05:12;11.50;99.90
24412;DHT22;12544;46.760;15.942;2022-10-31T10:07:55;11.40;99.90
24412;DHT22;12544;46.760;15.942;2022-10-31T10:16:01;11.50;99.90
24412;DHT22;12544;46.760;15.942;2022-10-31T10:26:55;11.70;99.90
24412;DHT22;12544;46.760;15.942;2022-10-31T10:32:08;11.70;99.90
24412;DHT22;12544;46.760;15.942;2022-10-31T10:34:43;11.80;99.90
24412;DHT22;12544;46.760;15.942;2022-10-31T10:43:35;12.00;99.90
24412;DHT22;12544;46.760;15.942;2022-10-31T10:51:44;12.30;99.90
24412;DHT22;12544;46.760;15.942;2022-10-31T11:00:10;12.40;99.90
24412;DHT22;12544;46.760;15.942;2022-10-31T11:02:37;12.50;99.90
24412;DHT22;12544;46.760;15.942;2022-10-31T11:05:03;12.60;99.90
24412;DHT22;12544;46.760;15.942;2022-10-31T11:07:39;12.50;99.90
24412;DHT22;12544;46.760;15.942;2022-10-31T11:10:06;12.60;99.90
24412;DHT22;12544;46.760;15.942;2022-10-31T11:12:38;12.60;99.90
24412;DHT22;12544;46.760;15.942;2022-10-31T11:15:21;12.60;99.90
24412;DHT22;12544;46.760;15.942;2022-10-31T11:17:50;12.70;99.90
24412;DHT22;12544;46.760;15.942;2022-10-31T11:20:23;12.80;99.90
24412;DHT22;12544;46.760;15.942;2022-10-31T11:22:49;12.80;99.90
24412;DHT22;12544;46.760;15.942;2022-10-31T11:25:26;12.80;99.90
24412;DHT22;12544;46.760;15.942;2022-10-31T11:28:03;12.80;99.90
24412;DHT22;12544;46.760;15.942;2022-10-31T11:30:45;12.80;99.90
24412;DHT22;12544;46.760;15.942;2022-10-31T11:33:39;12.80;99.90
24412;DHT22;12544;46.760;15.942;2022-10-31T11:36:14;12.90;99.90
24412;DHT22;12544;46.760;15.942;2022-10-31T11:38:41;12.90;99.90
24412;DHT22;12544;46.760;15.942;2022-10-31T11:43:36;12.80;99.90
24412;DHT22;12544;46.760;15.942;2022-10-31T11:46:10;12.70;99.90
24412;DHT22;12544;46.760;15.942;2022-10-31T11:48:36;12.80;99.90
24412;DHT22;12544;46.760;15.942;2022-10-31T11:51:03;12.90;99.90
24412;DHT22;12544;46.760;15.942;2022-10-31T11:53:33;12.90;99.90
24412;DHT22;12544;46.760;15.942;2022-10-31T11:56:15;12.90;99.90
24412;DHT22;12544;46.760;15.942;2022-10-31T11:58:42;13.00;99.90
24412;DHT22;12544;46.760;15.942;2022-10-31T12:01:29;13.10;99.90
24412;DHT22;12544;46.760;15.942;2022-10-31T12:06:32;13.20;99.90
24412;DHT22;12544;46.760;15.942;2022-10-31T12:08:59;13.10;99.90
24412;DHT22;12544;46.760;15.942;2022-10-31T12:11:55;13.10;99.90
24412;DHT22;12544;46.760;15.942;2022-10-31T12:15:04;13.10;99.90
24412;DHT22;12544;46.760;15.942;2022-10-31T12:28:57;13.50;99.90
24412;DHT22;12544;46.760;15.942;2022-10-31T12:34:25;13.40;99.90
24412;DHT22;12544;46.760;15.942;2022-10-31T12:45:43;13.70;99.90
24412;DHT22;12544;46.760;15.942;2022-10-31T13:04:51;13.60;99.90
24412;DHT22;12544;46.760;15.942;2022-10-31T13:07:36;13.70;99.90
24412;DHT22;12544;46.760;15.942;2022-10-31T13:10:21;13.70;99.90
24412;DHT22;12544;46.760;15.942;2022-10-31T13:12:50;13.80;99.90
24412;DHT22;12544;46.760;15.942;2022-10-31T13:15:50;13.90;99.90
24412;DHT22;12544;46.760;15.942;2022-10-31T13:18:43;13.90;99.90
24412;DHT22;12544;46.760;15.942;2022-10-31T13:21:18;13.90;99.90
24412;DHT22;12544;46.760;15.942;2022-10-31T13:23:48;13.90;99.90
24412;DHT22;12544;46.760;15.942;2022-10-31T13:26:44;14.00;99.90
24412;DHT22;12544;46.760;15.942;2022-10-31T13:29:18;13.90;99.90
24412;DHT22;12544;46.760;15.942;2022-10-31T13:31:45;14.00;99.90
24412;DHT22;12544;46.760;15.942;2022-10-31T13:40:34;14.00;99.90
24412;DHT22;12544;46.760;15.942;2022-10-31T13:43:22;13.90;99.90
24412;DHT22;12544;46.760;15.942;2022-10-31T13:45:53;13.90;99.90
24412;DHT22;12544;46.760;15.942;2022-10-31T13:50:59;13.90;99.90
24412;DHT22;12544;46.760;15.942;2022-10-31T13:58:34;13.80;99.90
24412;DHT22;12544;46.760;15.942;2022-10-31T14:03:43;13.70;99.90
24412;DHT22;12544;46.760;15.942;2022-10-31T14:06:22;13.60;99.90
24412;DHT22;12544;46.760;15.942;2022-10-31T14:08:50;13.60;99.90
24412;DHT22;12544;46.760;15.942;2022-10-31T14:11:24;13.50;99.90
24412;DHT22;12544;46.760;15.942;2022-10-31T14:13:52;13.40;99.90
24412;DHT22;12544;46.760;15.942;2022-10-31T14:16:31;13.40;99.90
24412;DHT22;12544;46.760;15.942;2022-10-31T14:19:00;13.40;99.90
24412;DHT22;12544;46.760;15.942;2022-10-31T14:21:29;13.40;99.90
24412;DHT22;12544;46.760;15.942;2022-10-31T14:23:57;13.40;99.90
24412;DHT22;12544;46.760;15.942;2022-10-31T14:28:56;13.30;99.90
24412;DHT22;12544;46.760;15.942;2022-10-31T14:31:42;13.30;99.90
24412;DHT22;12544;46.760;15.942;2022-10-31T14:42:13;13.30;99.90
24412;DHT22;12544;46.760;15.942;2022-10-31T14:45:31;13.30;99.90
24412;DHT22;12544;46.760;15.942;2022-10-31T14:48:10;13.30;99.90
24412;DHT22;12544;46.760;15.942;2022-10-31T14:53:23;13.10;99.90
24412;DHT22;12544;46.760;15.942;2022-10-31T14:55:52;13.00;99.90
24412;DHT22;12544;46.760;15.942;2022-10-31T14:58:25;13.00;99.90
24412;DHT22;12544;46.760;15.942;2022-10-31T15:00:56;12.90;99.90
24412;DHT22;12544;46.760;15.942;2022-10-31T15:05:56;12.90;99.90
24412;DHT22;12544;46.760;15.942;2022-10-31T15:08:57;13.00;99.90
24412;DHT22;12544;46.760;15.942;2022-10-31T15:11:25;12.90;99.90
24412;DHT22;12544;46.760;15.942;2022-10-31T15:13:53;12.90;99.90
24412;DHT22;12544;46.760;15.942;2022-10-31T15:19:33;12.90;99.90
24412;DHT22;12544;46.760;15.942;2022-10-31T15:22:00;12.80;99.90
24412;DHT22;12544;46.760;15.942;2022-10-31T15:24:37;12.80;99.90
24412;DHT22;12544;46.760;15.942;2022-10-31T15:27:04;12.70;99.90
24412;DHT22;12544;46.760;15.942;2022-10-31T15:29:30;12.80;99.90
24412;DHT22;12544;46.760;15.942;2022-10-31T15:31:58;12.70;99.90
24412;DHT22;12544;46.760;15.942;2022-10-31T15:34:44;12.70;99.90
24412;DHT22;12544;46.760;15.942;2022-10-31T15:37:17;12.80;99.90
24412;DHT22;12544;46.760;15.942;2022-10-31T15:39:44;12.80;99.90
24412;DHT22;12544;46.760;15.942;2022-10-31T15:42:35;12.80;99.90
24412;DHT22;12544;46.760;15.942;2022-10-31T15:47:35;12.80;99.90
24412;DHT22;12544;46.760;15.942;2022-10-31T15:50:03;12.70;99.90
24412;DHT22;12544;46.760;15.942;2022-10-31T15:52:48;12.70;99.90
24412;DHT22;12544;46.760;15.942;2022-10-31T15:55:19;12.60;99.90
24412;DHT22;12544;46.760;15.942;2022-10-31T15:57:57;12.50;99.90
24412;DHT22;12544;46.760;15.942;2022-10-31T16:05:44;12.50;99.90
24412;DHT22;12544;46.760;15.942;2022-10-31T16:13:34;12.50;99.90
24412;DHT22;12544;46.760;15.942;2022-10-31T16:16:03;12.50;99.90
24412;DHT22;12544;46.760;15.942;2022-10-31T16:18:35;12.60;99.90
24412;DHT22;12544;46.760;15.942;2022-10-31T16:21:02;12.50;99.90
24412;DHT22;12544;46.760;15.942;2022-10-31T16:23:28;12.40;99.90
24412;DHT22;12544;46.760;15.942;2022-10-31T16:25:54;12.40;99.90
24412;DHT22;12544;46.760;15.942;2022-10-31T16:28:25;12.50;99.90
24412;DHT22;12544;46.760;15.942;2022-10-31T16:30:56;12.50;99.90
24412;DHT22;12544;46.760;15.942;2022-10-31T16:33:27;12.50;99.90
24412;DHT22;12544;46.760;15.942;2022-10-31T16:35:54;12.50;99.90
24412;DHT22;12544;46.760;15.942;2022-10-31T16:38:20;12.50;99.90
24412;DHT22;12544;46.760;15.942;2022-10-31T16:40:46;12.50;99.90
24412;DHT22;12544;46.760;15.942;2022-10-31T16:43:14;12.50;99.90
24412;DHT22;12544;46.760;15.942;2022-10-31T16:49:01;12.40;99.90
24412;DHT22;12544;46.760;15.942;2022-10-31T16:51:27;12.40;99.90
24412;DHT22;12544;46.760;15.942;2022-10-31T16:53:52;12.50;99.90
24412;DHT22;12544;46.760;15.942;2022-10-31T16:56:25;12.50;99.90
24412;DHT22;12544;46.760;15.942;2022-10-31T17:02:15;12.50;99.90
24412;DHT22;12544;46.760;15.942;2022-10-31T17:04:41;12.60;99.90
24412;DHT22;12544;46.760;15.942;2022-10-31T17:07:07;12.60;99.90
24412;DHT22;12544;46.760;15.942;2022-10-31T17:09:33;12.60;99.90
24412;DHT22;12544;46.760;15.942;2022-10-31T17:11:59;12.50;99.90
24412;DHT22;12544;46.760;15.942;2022-10-31T17:18:16;12.30;99.90
24412;DHT22;12544;46.760;15.942;2022-10-31T17:20:42;12.20;99.90
24412;DHT22;12544;46.760;15.942;2022-10-31T17:23:10;12.10;99.90
24412;DHT22;12544;46.760;15.942;2022-10-31T17:25:36;12.10;99.90
24412;DHT22;12544;46.760;15.942;2022-10-31T17:28:02;12.20;99.90
24412;DHT22;12544;46.760;15.942;2022-10-31T17:30:30;12.10;99.90
24412;DHT22;12544;46.760;15.942;2022-10-31T17:32:56;12.10;99.90
24412;DHT22;12544;46.760;15.942;2022-10-31T17:35:22;12.00;99.90
24412;DHT22;12544;46.760;15.942;2022-10-31T17:37:47;12.10;99.90
24412;DHT22;12544;46.760;15.942;2022-10-31T17:40:20;12.10;99.90
24412;DHT22;12544;46.760;15.942;2022-10-31T17:42:54;12.10;99.90
24412;DHT22;12544;46.760;15.942;2022-10-31T17:45:21;12.10;99.90
24412;DHT22;12544;46.760;15.942;2022-10-31T17:47:49;12.10;99.90
24412;DHT22;12544;46.760;15.942;2022-10-31T17:50:16;12.10;99.90
24412;DHT22;12544;46.760;15.942;2022-10-31T17:52:42;12.10;99.90
24412;DHT22;12544;46.760;15.942;2022-10-31T17:55:08;12.00;99.90
24412;DHT22;12544;46.760;15.942;2022-10-31T17:57:35;12.00;99.90
24412;DHT22;12544;46.760;15.942;2022-10-31T18:03:23;12.00;99.90
24412;DHT22;12544;46.760;15.942;2022-10-31T18:05:57;12.00;99.90
24412;DHT22;12544;46.760;15.942;2022-10-31T18:08:28;12.10;99.90
24412;DHT22;12544;46.760;15.942;2022-10-31T18:10:54;12.00;99.90
24412;DHT22;12544;46.760;15.942;2022-10-31T18:16:42;12.10;99.90
24412;DHT22;12544;46.760;15.942;2022-10-31T18:19:11;12.00;99.90
24412;DHT22;12544;46.760;15.942;2022-10-31T18:21:37;12.00;99.90
24412;DHT22;12544;46.760;15.942;2022-10-31T18:24:04;11.90;99.90
24412;DHT22;12544;46.760;15.942;2022-10-31T18:26:29;11.90;99.90
24412;DHT22;12544;46.760;15.942;2022-10-31T18:28:55;11.90;99.90
24412;DHT22;12544;46.760;15.942;2022-10-31T18:31:21;11.90;99.90
24412;DHT22;12544;46.760;15.942;2022-10-31T18:33:46;11.90;99.90